Time;durP1;ratioP1;P1;durP2;ratioP2;P2;SDS_P1;SDS_P2;PMS_P1;PMS_P2;Temp;Humidity;BMP_temperature;BMP_pressure;BME280_temperature;BME280_humidity;BME280_pressure;Samples;Min_cycle;Max_cycle;Signal;HPM_P1;HPM_P2
2021/11/17 02:26:01;;;;;;;;;;;;;;;;;;351451;28;1034;-77
2021/11/17 02:26:30;;;;;;;;;;;;;;;;;;351473;28;801;-79
2021/11/17 02:26:56;;;;;;;;;;;;;;;;;;351293;28;824;-79
2021/11/17 02:27:25;;;;;;;;;;;;;;;;;;351419;28;924;-80
2021/11/17 02:27:48;;;;;;;;;;;;;;;;;;351462;28;848;-81
2021/11/17 02:28:17;;;;;;;;;;;;;;;;;;351379;28;939;-81
2021/11/17 02:28:30;;;;;;;;;;;;;;;;;;351453;28;999;-81
2021/11/17 02:29:04;;;;;;;;;;;;;;;;;;351411;28;940;-79
2021/11/17 02:30:02;;;;;;;;;;;;;;;;;;347156;28;944;-81
2021/11/17 02:30:31;;;;;;;;;;;;;;;;;;347070;28;1131;-81
2021/11/17 02:30:44;;;;;;;;;;;;;;;;;;351480;28;967;-81
2021/11/17 02:31:10;;;;;;;;;;;;;;;;;;351473;28;917;-80
2021/11/17 02:31:39;;;;;;;;;;;;;;;;;;351418;28;919;-81
2021/11/17 02:32:02;;;;;;;;;;;;;;;;;;351341;28;980;-79
2021/11/17 02:32:31;;;;;;;;;;;;;;;;;;351485;28;817;-81
2021/11/17 02:32:41;;;;;;;;;;;;;;;;;;351466;28;912;-80
2021/11/17 02:33:09;;;;;;;;;;;;;;;;;;351499;28;797;-81
2021/11/17 02:33:19;;;;;;;;;;;;;;;;;;351205;28;797;-80
2021/11/17 02:33:39;;;;;;;;;;;;;;;;;;351248;28;864;-81
2021/11/17 02:33:56;;;;;;;;;;;;;;;;;;351391;28;916;-82
2021/11/17 02:34:13;;;;;;;;;;;;;;;;;;351327;28;1221;-80
2021/11/17 02:34:42;;;;;;;;;;;;;;;;;;348417;28;1479;-79
2021/11/17 02:34:53;;;;;;;;;;;;;;;;;;348547;28;826;-79
2021/11/17 02:35:04;;;;;;;;;;;;;;;;;;348577;28;1007;-80
2021/11/17 02:35:33;;;;;;;;;;;;;;;;;;348588;28;829;-80
2021/11/17 02:35:43;;;;;;;;;;;;;;;;;;348559;28;817;-81
2021/11/17 02:36:13;;;;;;;;;;;;;;;;;;348495;28;1004;-80
2021/11/17 02:36:33;;;;;;;;;;;;;;;;;;351036;28;907;-81
2021/11/17 02:37:21;;;;;;;;;;;;;;;;;;351292;28;972;-77
2021/11/17 02:37:54;;;;;;;;;;;;;;;;;;351464;28;857;-81
2021/11/17 02:38:23;;;;;;;;;;;;;;;;;;351230;28;1421;-80
2021/11/17 02:39:03;;;;;;;;;;;;;;;;;;351410;28;844;-81
2021/11/17 02:39:22;;;;;;;;;;;;;;;;;;347128;28;1126;-81
2021/11/17 02:39:53;;;;;;;;;;;;;;;;;;346944;28;1172;-79
2021/11/17 02:40:03;;;;;;;;;;;;;;;;;;344256;28;1059;-80
2021/11/17 02:40:14;;;;;;;;;;;;;;;;;;345666;28;1246;-81
2021/11/17 02:40:40;;;;;;;;;;;;;;;;;;345804;28;1101;-81
2021/11/17 02:41:09;;;;;;;;;;;;;;;;;;345749;28;949;-80
2021/11/17 02:41:38;;;;;;;;;;;;;;;;;;351342;28;900;-81
2021/11/17 02:42:21;;;;;;;;;;;;;;;;;;349769;28;975;-80
2021/11/17 02:42:44;;;;;;;;;;;;;;;;;;349930;28;849;-79
2021/11/17 02:43:13;;;;;;;;;;;;;;;;;;349901;28;964;-80
2021/11/17 02:43:42;;;;;;;;;;;;;;;;;;349852;28;981;-78
2021/11/17 02:43:55;;;;;;;;;;;;;;;;;;351465;28;924;-80
2021/11/17 02:44:21;;;;;;;;;;;;;;;;;;351451;28;836;-81
2021/11/17 02:44:40;;;;;;;;;;;;;;;;;;351324;28;978;-81
2021/11/17 02:44:51;;;;;;;;;;;;;;;;;;351445;28;901;-80
2021/11/17 02:45:04;;;;;;;;;;;;;;;;;;351410;28;972;-81
2021/11/17 02:45:14;;;;;;;;;;;;;;;;;;351428;28;1047;-81
2021/11/17 02:45:44;;;;;;;;;;;;;;;;;;351368;28;940;-80
2021/11/17 02:46:00;;;;;;;;;;;;;;;;;;351374;28;944;-78
2021/11/17 02:46:27;;;;;;;;;;;;;;;;;;351322;28;972;-78
2021/11/17 02:46:55;;;;;;;;;;;;;;;;;;351353;28;872;-80
2021/11/17 02:47:18;;;;;;;;;;;;;;;;;;351290;28;1015;-81
2021/11/17 02:47:40;;;;;;;;;;;;;;;;;;351306;28;932;-80
2021/11/17 02:47:51;;;;;;;;;;;;;;;;;;349815;28;1315;-80
2021/11/17 02:48:19;;;;;;;;;;;;;;;;;;350001;28;840;-80
2021/11/17 02:48:42;;;;;;;;;;;;;;;;;;349898;28;980;-78
2021/11/17 02:49:04;;;;;;;;;;;;;;;;;;349800;28;1031;-78
2021/11/17 02:49:17;;;;;;;;;;;;;;;;;;349937;28;940;-81
2021/11/17 02:49:33;;;;;;;;;;;;;;;;;;348543;28;996;-81
2021/11/17 02:50:02;;;;;;;;;;;;;;;;;;348692;28;932;-80
2021/11/17 02:50:31;;;;;;;;;;;;;;;;;;349908;28;790;-79
2021/11/17 02:50:50;;;;;;;;;;;;;;;;;;349887;28;995;-80
2021/11/17 02:51:19;;;;;;;;;;;;;;;;;;349912;28;1011;-81
2021/11/17 02:51:43;;;;;;;;;;;;;;;;;;351446;28;876;-80
2021/11/17 02:52:13;;;;;;;;;;;;;;;;;;351401;28;1007;-80
2021/11/17 02:52:39;;;;;;;;;;;;;;;;;;346973;28;1054;-79
2021/11/17 02:52:49;;;;;;;;;;;;;;;;;;351322;28;1316;-80
2021/11/17 02:53:07;;;;;;;;;;;;;;;;;;351458;28;935;-80
2021/11/17 02:53:23;;;;;;;;;;;;;;;;;;351387;28;817;-81
2021/11/17 02:53:47;;;;;;;;;;;;;;;;;;351349;28;968;-80
2021/11/17 02:54:06;;;;;;;;;;;;;;;;;;351445;28;821;-78
2021/11/17 02:54:33;;;;;;;;;;;;;;;;;;351377;28;1014;-76
2021/11/17 02:54:49;;;;;;;;;;;;;;;;;;351406;28;1012;-81
2021/11/17 02:55:05;;;;;;;;;;;;;;;;;;351414;28;931;-79
2021/11/17 02:55:34;;;;;;;;;;;;;;;;;;351183;28;1406;-82
2021/11/17 02:55:45;;;;;;;;;;;;;;;;;;351273;28;908;-78
2021/11/17 02:56:07;;;;;;;;;;;;;;;;;;351262;28;1048;-79
2021/11/17 02:56:20;;;;;;;;;;;;;;;;;;351281;28;916;-80
2021/11/17 02:56:40;;;;;;;;;;;;;;;;;;351295;28;952;-81
2021/11/17 02:57:09;;;;;;;;;;;;;;;;;;349887;28;1040;-78
2021/11/17 02:57:26;;;;;;;;;;;;;;;;;;349846;28;881;-78
2021/11/17 02:58:32;;;;;;;;;;;;;;;;;;351274;28;833;-79
2021/11/17 02:59:01;;;;;;;;;;;;;;;;;;351293;28;1044;-79
2021/11/17 02:59:12;;;;;;;;;;;;;;;;;;351381;28;1125;-80
2021/11/17 02:59:34;;;;;;;;;;;;;;;;;;351389;28;943;-80
2021/11/17 02:59:54;;;;;;;;;;;;;;;;;;351384;28;983;-80
2021/11/17 03:00:23;;;;;;;;;;;;;;;;;;351345;28;884;-81
2021/11/17 03:00:42;;;;;;;;;;;;;;;;;;351376;28;991;-76
2021/11/17 03:01:01;;;;;;;;;;;;;;;;;;351444;28;1014;-76
2021/11/17 03:01:30;;;;;;;;;;;;;;;;;;351175;28;909;-77
2021/11/17 03:01:40;;;;;;;;;;;;;;;;;;351262;28;912;-77
2021/11/17 03:01:56;;;;;;;;;;;;;;;;;;351244;28;987;-77
2021/11/17 03:02:25;;;;;;;;;;;;;;;;;;351289;28;984;-78
2021/11/17 03:02:35;;;;;;;;;;;;;;;;;;351168;28;834;-79
2021/11/17 03:02:58;;;;;;;;;;;;;;;;;;351227;28;876;-79
2021/11/17 03:03:26;;;;;;;;;;;;;;;;;;352056;28;916;-77
2021/11/17 03:03:55;;;;;;;;;;;;;;;;;;352660;28;797;-79
2021/11/17 03:04:06;;;;;;;;;;;;;;;;;;352685;28;893;-76
2021/11/17 03:04:35;;;;;;;;;;;;;;;;;;352709;28;853;-76
2021/11/17 03:04:54;;;;;;;;;;;;;;;;;;351381;28;904;-76
2021/11/17 03:05:20;;;;;;;;;;;;;;;;;;351306;28;1038;-79
2021/11/17 03:05:30;;;;;;;;;;;;;;;;;;349927;28;920;-77
2021/11/17 03:05:41;;;;;;;;;;;;;;;;;;348522;28;957;-77
2021/11/17 03:06:03;;;;;;;;;;;;;;;;;;348514;28;980;-76
2021/11/17 03:06:25;;;;;;;;;;;;;;;;;;347132;28;944;-76
2021/11/17 03:06:45;;;;;;;;;;;;;;;;;;347050;28;1001;-80
2021/11/17 03:07:02;;;;;;;;;;;;;;;;;;345699;28;1446;-78
2021/11/17 03:07:40;;;;;;;;;;;;;;;;;;348374;28;549;-79
2021/11/17 03:08:09;;;;;;;;;;;;;;;;;;348288;28;1462;-76
2021/11/17 03:08:38;;;;;;;;;;;;;;;;;;349908;28;944;-76
2021/11/17 03:08:54;;;;;;;;;;;;;;;;;;349870;28;976;-76
2021/11/17 03:09:05;;;;;;;;;;;;;;;;;;348680;28;814;-78
2021/11/17 03:10:00;;;;;;;;;;;;;;;;;;351256;28;992;-80
2021/11/17 03:10:16;;;;;;;;;;;;;;;;;;351325;28;968;-79
2021/11/17 03:10:28;;;;;;;;;;;;;;;;;;351223;28;999;-79
2021/11/17 03:10:56;;;;;;;;;;;;;;;;;;351322;28;837;-76
2021/11/17 03:11:16;;;;;;;;;;;;;;;;;;352548;28;932;-77
2021/11/17 03:11:33;;;;;;;;;;;;;;;;;;352666;28;925;-80
2021/11/17 03:11:43;;;;;;;;;;;;;;;;;;352758;28;865;-80
2021/11/17 03:11:59;;;;;;;;;;;;;;;;;;352678;28;1035;-75
2021/11/17 03:12:12;;;;;;;;;;;;;;;;;;352709;28;852;-75
2021/11/17 03:12:23;;;;;;;;;;;;;;;;;;352644;28;851;-77
2021/11/17 03:12:51;;;;;;;;;;;;;;;;;;352636;28;1000;-77
2021/11/17 03:13:14;;;;;;;;;;;;;;;;;;350850;28;1004;-77
2021/11/17 03:13:46;;;;;;;;;;;;;;;;;;349892;28;988;-78
2021/11/17 03:14:28;;;;;;;;;;;;;;;;;;349976;28;801;-75
2021/11/17 03:14:39;;;;;;;;;;;;;;;;;;345716;28;964;-79
2021/11/17 03:15:08;;;;;;;;;;;;;;;;;;345754;28;826;-79
2021/11/17 03:15:37;;;;;;;;;;;;;;;;;;345745;28;1000;-80
2021/11/17 03:15:54;;;;;;;;;;;;;;;;;;344389;28;914;-78
2021/11/17 03:16:04;;;;;;;;;;;;;;;;;;349860;28;979;-76
2021/11/17 03:16:33;;;;;;;;;;;;;;;;;;349927;28;849;-77
2021/11/17 03:17:29;;;;;;;;;;;;;;;;;;349910;28;864;-78
2021/11/17 03:17:49;;;;;;;;;;;;;;;;;;349904;28;1015;-80
2021/11/17 03:18:18;;;;;;;;;;;;;;;;;;349917;28;849;-75
2021/11/17 03:18:52;;;;;;;;;;;;;;;;;;350000;28;988;-77
2021/11/17 03:19:05;;;;;;;;;;;;;;;;;;345694;28;1000;-76
2021/11/17 03:19:31;;;;;;;;;;;;;;;;;;347121;28;1183;-78
2021/11/17 03:20:00;;;;;;;;;;;;;;;;;;349894;28;829;-79
2021/11/17 03:20:10;;;;;;;;;;;;;;;;;;349868;28;987;-79
2021/11/17 03:20:20;;;;;;;;;;;;;;;;;;349880;28;1039;-78
2021/11/17 03:20:31;;;;;;;;;;;;;;;;;;349815;28;931;-77
2021/11/17 03:20:44;;;;;;;;;;;;;;;;;;348535;28;1192;-77
2021/11/17 03:20:57;;;;;;;;;;;;;;;;;;348600;28;739;-77
2021/11/17 03:21:26;;;;;;;;;;;;;;;;;;349823;28;929;-76
2021/11/17 03:21:42;;;;;;;;;;;;;;;;;;349891;28;933;-78
2021/11/17 03:22:11;;;;;;;;;;;;;;;;;;349897;28;988;-79
2021/11/17 03:22:40;;;;;;;;;;;;;;;;;;349869;28;1004;-80
2021/11/17 03:22:53;;;;;;;;;;;;;;;;;;351247;28;953;-80
2021/11/17 03:23:15;;;;;;;;;;;;;;;;;;351121;28;975;-81
2021/11/17 03:23:44;;;;;;;;;;;;;;;;;;351216;28;1020;-78
2021/11/17 03:24:13;;;;;;;;;;;;;;;;;;349967;28;967;-78
2021/11/17 03:24:29;;;;;;;;;;;;;;;;;;349927;28;955;-78
2021/11/17 03:24:46;;;;;;;;;;;;;;;;;;349958;28;865;-80
2021/11/17 03:25:07;;;;;;;;;;;;;;;;;;350019;28;909;-77
2021/11/17 03:25:25;;;;;;;;;;;;;;;;;;349981;28;809;-77
2021/11/17 03:26:23;;;;;;;;;;;;;;;;;;349940;28;904;-76
2021/11/17 03:26:48;;;;;;;;;;;;;;;;;;349959;28;1047;-75
2021/11/17 03:27:34;;;;;;;;;;;;;;;;;;350002;28;860;-80
2021/11/17 03:28:03;;;;;;;;;;;;;;;;;;345716;28;1138;-77
2021/11/17 03:28:48;;;;;;;;;;;;;;;;;;349979;28;944;-80
2021/11/17 03:29:07;;;;;;;;;;;;;;;;;;349874;28;979;-79
2021/11/17 03:29:26;;;;;;;;;;;;;;;;;;350059;28;845;-80
2021/11/17 03:29:48;;;;;;;;;;;;;;;;;;350016;28;805;-76
2021/11/17 03:30:17;;;;;;;;;;;;;;;;;;349928;28;1019;-81
2021/11/17 03:30:41;;;;;;;;;;;;;;;;;;349990;28;936;-79
2021/11/17 03:31:03;;;;;;;;;;;;;;;;;;350034;28;932;-80
2021/11/17 03:31:33;;;;;;;;;;;;;;;;;;350016;28;980;-81
2021/11/17 03:32:01;;;;;;;;;;;;;;;;;;349957;28;937;-79
2021/11/17 03:32:30;;;;;;;;;;;;;;;;;;349864;28;972;-80
2021/11/17 03:32:59;;;;;;;;;;;;;;;;;;349907;28;1006;-79
2021/11/17 03:33:32;;;;;;;;;;;;;;;;;;349867;28;920;-79
2021/11/17 03:33:55;;;;;;;;;;;;;;;;;;349939;28;972;-73
2021/11/17 03:34:50;;;;;;;;;;;;;;;;;;349908;28;1007;-74
2021/11/17 03:35:47;;;;;;;;;;;;;;;;;;349970;28;953;-74
2021/11/17 03:36:25;;;;;;;;;;;;;;;;;;350023;28;928;-75
2021/11/17 03:36:42;;;;;;;;;;;;;;;;;;349957;28;936;-80
2021/11/17 03:37:02;;;;;;;;;;;;;;;;;;349879;28;928;-76
2021/11/17 03:37:25;;;;;;;;;;;;;;;;;;349848;28;996;-78
2021/11/17 03:37:41;;;;;;;;;;;;;;;;;;349861;28;932;-77
2021/11/17 03:38:04;;;;;;;;;;;;;;;;;;349815;28;881;-79
2021/11/17 03:38:20;;;;;;;;;;;;;;;;;;348356;28;785;-81
2021/11/17 03:38:36;;;;;;;;;;;;;;;;;;348372;28;775;-79
2021/11/17 03:38:49;;;;;;;;;;;;;;;;;;348841;28;1027;-79
2021/11/17 03:38:59;;;;;;;;;;;;;;;;;;349872;28;917;-79
2021/11/17 03:39:13;;;;;;;;;;;;;;;;;;349935;28;802;-79
2021/11/17 03:39:23;;;;;;;;;;;;;;;;;;349859;28;980;-81
2021/11/17 03:39:37;;;;;;;;;;;;;;;;;;349839;28;928;-80
2021/11/17 03:39:58;;;;;;;;;;;;;;;;;;349904;28;849;-77
2021/11/17 03:40:18;;;;;;;;;;;;;;;;;;349585;28;814;-77
2021/11/17 03:40:41;;;;;;;;;;;;;;;;;;348576;28;908;-76
2021/11/17 03:41:10;;;;;;;;;;;;;;;;;;348497;28;1965;-79
2021/11/17 03:41:32;;;;;;;;;;;;;;;;;;348597;28;984;-79
2021/11/17 03:41:49;;;;;;;;;;;;;;;;;;348633;28;1012;-81
2021/11/17 03:42:18;;;;;;;;;;;;;;;;;;348422;28;901;-80
2021/11/17 03:42:47;;;;;;;;;;;;;;;;;;348583;28;913;-79
2021/11/17 03:43:05;;;;;;;;;;;;;;;;;;348573;28;842;-77
2021/11/17 03:43:18;;;;;;;;;;;;;;;;;;348417;28;1036;-79
2021/11/17 03:43:29;;;;;;;;;;;;;;;;;;348358;28;1019;-79
2021/11/17 03:43:45;;;;;;;;;;;;;;;;;;348466;28;893;-79
2021/11/17 03:44:14;;;;;;;;;;;;;;;;;;348495;28;1135;-76
2021/11/17 03:44:36;;;;;;;;;;;;;;;;;;348402;28;806;-78
2021/11/17 03:44:47;;;;;;;;;;;;;;;;;;348332;28;829;-80
2021/11/17 03:45:03;;;;;;;;;;;;;;;;;;348514;28;937;-79
2021/11/17 03:45:32;;;;;;;;;;;;;;;;;;348489;28;865;-76
2021/11/17 03:45:43;;;;;;;;;;;;;;;;;;348559;28;1616;-77
2021/11/17 03:45:56;;;;;;;;;;;;;;;;;;348551;28;853;-78
2021/11/17 03:46:15;;;;;;;;;;;;;;;;;;348572;28;996;-77
2021/11/17 03:46:38;;;;;;;;;;;;;;;;;;348599;28;964;-80
2021/11/17 03:47:01;;;;;;;;;;;;;;;;;;348558;28;1062;-79
2021/11/17 03:47:29;;;;;;;;;;;;;;;;;;348455;28;920;-77
2021/11/17 03:48:03;;;;;;;;;;;;;;;;;;348467;28;1067;-77
2021/11/17 03:48:13;;;;;;;;;;;;;;;;;;345734;28;866;-79
2021/11/17 03:48:30;;;;;;;;;;;;;;;;;;345559;28;1226;-80
2021/11/17 03:48:40;;;;;;;;;;;;;;;;;;345472;28;961;-81
2021/11/17 03:49:07;;;;;;;;;;;;;;;;;;345684;28;869;-76
2021/11/17 03:49:33;;;;;;;;;;;;;;;;;;347586;28;953;-79
2021/11/17 03:50:02;;;;;;;;;;;;;;;;;;347080;28;846;-81
2021/11/17 03:50:33;;;;;;;;;;;;;;;;;;347102;28;803;-81
2021/11/17 03:51:02;;;;;;;;;;;;;;;;;;348428;28;988;-79
2021/11/17 03:51:13;;;;;;;;;;;;;;;;;;348364;28;929;-76
2021/11/17 03:51:41;;;;;;;;;;;;;;;;;;348485;28;838;-77
2021/11/17 03:52:10;;;;;;;;;;;;;;;;;;348570;28;956;-80
2021/11/17 03:52:39;;;;;;;;;;;;;;;;;;348444;28;996;-81
2021/11/17 03:53:08;;;;;;;;;;;;;;;;;;348391;28;1623;-78
2021/11/17 03:53:45;;;;;;;;;;;;;;;;;;348384;28;928;-76
2021/11/17 03:54:04;;;;;;;;;;;;;;;;;;347030;28;1116;-78
2021/11/17 03:54:27;;;;;;;;;;;;;;;;;;345388;28;806;-81
2021/11/17 03:54:49;;;;;;;;;;;;;;;;;;345599;28;925;-78
2021/11/17 03:55:05;;;;;;;;;;;;;;;;;;345736;28;972;-75
2021/11/17 03:55:16;;;;;;;;;;;;;;;;;;345695;28;1004;-76
2021/11/17 03:55:26;;;;;;;;;;;;;;;;;;345820;28;837;-76
2021/11/17 03:55:39;;;;;;;;;;;;;;;;;;345633;28;933;-75
2021/11/17 03:55:49;;;;;;;;;;;;;;;;;;345691;28;858;-77
2021/11/17 03:56:05;;;;;;;;;;;;;;;;;;345821;28;830;-79
2021/11/17 03:56:34;;;;;;;;;;;;;;;;;;348412;28;933;-78
2021/11/17 03:57:03;;;;;;;;;;;;;;;;;;348545;28;968;-77
2021/11/17 03:57:20;;;;;;;;;;;;;;;;;;348529;28;1050;-79
2021/11/17 03:57:49;;;;;;;;;;;;;;;;;;348579;28;904;-79
2021/11/17 03:58:00;;;;;;;;;;;;;;;;;;348574;28;984;-80
2021/11/17 03:58:10;;;;;;;;;;;;;;;;;;348554;28;885;-79
2021/11/17 03:58:26;;;;;;;;;;;;;;;;;;348489;28;850;-80
2021/11/17 03:58:45;;;;;;;;;;;;;;;;;;348443;28;980;-81
2021/11/17 03:59:15;;;;;;;;;;;;;;;;;;348370;28;782;-78
2021/11/17 03:59:33;;;;;;;;;;;;;;;;;;348397;28;801;-80
2021/11/17 03:59:53;;;;;;;;;;;;;;;;;;347107;28;952;-81
2021/11/17 04:00:07;;;;;;;;;;;;;;;;;;345591;28;1603;-80
2021/11/17 04:00:27;;;;;;;;;;;;;;;;;;346489;28;842;-80
2021/11/17 04:00:58;;;;;;;;;;;;;;;;;;345787;28;861;-78
2021/11/17 04:01:20;;;;;;;;;;;;;;;;;;345418;28;1005;-78
2021/11/17 04:01:31;;;;;;;;;;;;;;;;;;345731;28;981;-78
2021/11/17 04:01:41;;;;;;;;;;;;;;;;;;346778;28;798;-80
2021/11/17 04:02:26;;;;;;;;;;;;;;;;;;345737;28;988;-79
2021/11/17 04:02:49;;;;;;;;;;;;;;;;;;346748;28;1008;-81
2021/11/17 04:03:18;;;;;;;;;;;;;;;;;;347050;28;995;-79
2021/11/17 04:03:31;;;;;;;;;;;;;;;;;;347100;28;923;-77
2021/11/17 04:03:45;;;;;;;;;;;;;;;;;;345594;28;1175;-79
2021/11/17 04:04:13;;;;;;;;;;;;;;;;;;348336;28;951;-79
2021/11/17 04:04:36;;;;;;;;;;;;;;;;;;348287;28;985;-81
2021/11/17 04:04:53;;;;;;;;;;;;;;;;;;348427;28;489;-80
2021/11/17 04:05:07;;;;;;;;;;;;;;;;;;348456;28;937;-75
2021/11/17 04:05:17;;;;;;;;;;;;;;;;;;348474;28;1059;-78
2021/11/17 04:05:27;;;;;;;;;;;;;;;;;;348399;28;976;-76
2021/11/17 04:05:59;;;;;;;;;;;;;;;;;;348528;28;888;-76
2021/11/17 04:06:27;;;;;;;;;;;;;;;;;;348556;28;790;-78
2021/11/17 04:06:56;;;;;;;;;;;;;;;;;;348592;28;1028;-80
2021/11/17 04:07:14;;;;;;;;;;;;;;;;;;348529;28;963;-79
2021/11/17 04:07:24;;;;;;;;;;;;;;;;;;348555;28;817;-78
2021/11/17 04:07:41;;;;;;;;;;;;;;;;;;348507;28;1015;-76
2021/11/17 04:08:10;;;;;;;;;;;;;;;;;;348588;28;841;-75
2021/11/17 04:08:20;;;;;;;;;;;;;;;;;;348616;28;956;-77
2021/11/17 04:08:40;;;;;;;;;;;;;;;;;;348530;28;1165;-79
2021/11/17 04:08:50;;;;;;;;;;;;;;;;;;348441;28;1031;-80
2021/11/17 04:09:00;;;;;;;;;;;;;;;;;;348215;28;821;-78
2021/11/17 04:09:18;;;;;;;;;;;;;;;;;;348368;28;1038;-81
2021/11/17 04:09:40;;;;;;;;;;;;;;;;;;348488;28;1008;-79
2021/11/17 04:09:50;;;;;;;;;;;;;;;;;;348414;28;1004;-78
2021/11/17 04:10:19;;;;;;;;;;;;;;;;;;348510;28;818;-80
2021/11/17 04:10:42;;;;;;;;;;;;;;;;;;348516;28;818;-79
2021/11/17 04:11:05;;;;;;;;;;;;;;;;;;348536;28;889;-81
2021/11/17 04:11:24;;;;;;;;;;;;;;;;;;348346;28;960;-80
2021/11/17 04:11:46;;;;;;;;;;;;;;;;;;348488;28;940;-80
2021/11/17 04:11:59;;;;;;;;;;;;;;;;;;348373;28;1062;-77
2021/11/17 04:12:28;;;;;;;;;;;;;;;;;;348508;28;849;-78
2021/11/17 04:12:41;;;;;;;;;;;;;;;;;;348359;28;1403;-77
2021/11/17 04:13:04;;;;;;;;;;;;;;;;;;348506;28;924;-79
2021/11/17 04:13:21;;;;;;;;;;;;;;;;;;348479;28;861;-78
2021/11/17 04:13:50;;;;;;;;;;;;;;;;;;348548;28;928;-80
2021/11/17 04:14:19;;;;;;;;;;;;;;;;;;348415;28;805;-80
2021/11/17 04:15:12;;;;;;;;;;;;;;;;;;348554;28;826;-80
2021/11/17 04:15:26;;;;;;;;;;;;;;;;;;348472;28;845;-80
2021/11/17 04:15:39;;;;;;;;;;;;;;;;;;348417;28;853;-78
2021/11/17 04:16:33;;;;;;;;;;;;;;;;;;348492;28;953;-78
2021/11/17 04:16:50;;;;;;;;;;;;;;;;;;348527;28;967;-77
2021/11/17 04:17:13;;;;;;;;;;;;;;;;;;348519;28;849;-79
2021/11/17 04:17:29;;;;;;;;;;;;;;;;;;348583;28;1030;-77
2021/11/17 04:18:30;;;;;;;;;;;;;;;;;;348518;28;1023;-78
2021/11/17 04:18:52;;;;;;;;;;;;;;;;;;348549;28;924;-82
2021/11/17 04:19:19;;;;;;;;;;;;;;;;;;348523;28;746;-77
2021/11/17 04:19:45;;;;;;;;;;;;;;;;;;348576;28;971;-80
2021/11/17 04:20:14;;;;;;;;;;;;;;;;;;348561;28;919;-79
2021/11/17 04:20:36;;;;;;;;;;;;;;;;;;348572;28;801;-79
2021/11/17 04:20:46;;;;;;;;;;;;;;;;;;348423;28;1977;-75
2021/11/17 04:21:03;;;;;;;;;;;;;;;;;;348570;28;868;-78
2021/11/17 04:21:25;;;;;;;;;;;;;;;;;;348397;28;797;-78
2021/11/17 04:21:35;;;;;;;;;;;;;;;;;;348487;28;983;-80
2021/11/17 04:22:15;;;;;;;;;;;;;;;;;;348400;28;900;-81
2021/11/17 04:22:28;;;;;;;;;;;;;;;;;;345680;28;955;-80
2021/11/17 04:22:56;;;;;;;;;;;;;;;;;;345683;28;1429;-80
2021/11/17 04:23:26;;;;;;;;;;;;;;;;;;348437;28;968;-80
2021/11/17 04:23:42;;;;;;;;;;;;;;;;;;348590;28;868;-77
2021/11/17 04:24:05;;;;;;;;;;;;;;;;;;348501;28;964;-75
2021/11/17 04:24:34;;;;;;;;;;;;;;;;;;348435;28;868;-79
2021/11/17 04:25:03;;;;;;;;;;;;;;;;;;348542;28;911;-76
2021/11/17 04:25:32;;;;;;;;;;;;;;;;;;348514;28;991;-79
2021/11/17 04:25:46;;;;;;;;;;;;;;;;;;348567;28;1071;-79
2021/11/17 04:25:56;;;;;;;;;;;;;;;;;;348561;28;944;-81
2021/11/17 04:26:09;;;;;;;;;;;;;;;;;;348477;28;873;-81
2021/11/17 04:26:30;;;;;;;;;;;;;;;;;;348537;28;900;-80
2021/11/17 04:26:46;;;;;;;;;;;;;;;;;;348454;28;907;-80
2021/11/17 04:27:00;;;;;;;;;;;;;;;;;;348498;28;1051;-81
2021/11/17 04:27:10;;;;;;;;;;;;;;;;;;348510;28;998;-76
2021/11/17 04:27:39;;;;;;;;;;;;;;;;;;348552;28;972;-77
2021/11/17 04:27:49;;;;;;;;;;;;;;;;;;348554;28;984;-80
2021/11/17 04:28:19;;;;;;;;;;;;;;;;;;348546;28;956;-77
2021/11/17 04:28:32;;;;;;;;;;;;;;;;;;348574;28;852;-78
2021/11/17 04:29:01;;;;;;;;;;;;;;;;;;348483;28;991;-78
2021/11/17 04:29:24;;;;;;;;;;;;;;;;;;348511;28;793;-79
2021/11/17 04:29:38;;;;;;;;;;;;;;;;;;348406;28;869;-79
2021/11/17 04:30:07;;;;;;;;;;;;;;;;;;348522;28;928;-80
2021/11/17 04:30:20;;;;;;;;;;;;;;;;;;348588;28;817;-79
2021/11/17 04:30:46;;;;;;;;;;;;;;;;;;348543;28;845;-80
2021/11/17 04:31:16;;;;;;;;;;;;;;;;;;348504;28;964;-81
2021/11/17 04:31:34;;;;;;;;;;;;;;;;;;348288;28;1785;-78
2021/11/17 04:32:03;;;;;;;;;;;;;;;;;;348519;28;979;-78
2021/11/17 04:32:26;;;;;;;;;;;;;;;;;;348509;28;980;-77
2021/11/17 04:32:39;;;;;;;;;;;;;;;;;;348537;28;999;-80
2021/11/17 04:32:53;;;;;;;;;;;;;;;;;;348578;28;857;-81
2021/11/17 04:33:35;;;;;;;;;;;;;;;;;;348525;28;829;-79
2021/11/17 04:33:48;;;;;;;;;;;;;;;;;;346968;28;972;-78
2021/11/17 04:34:02;;;;;;;;;;;;;;;;;;346957;28;1462;-78
2021/11/17 04:34:18;;;;;;;;;;;;;;;;;;346960;28;944;-80
2021/11/17 04:34:32;;;;;;;;;;;;;;;;;;346927;28;814;-78
2021/11/17 04:34:57;;;;;;;;;;;;;;;;;;346914;28;932;-78
2021/11/17 04:35:14;;;;;;;;;;;;;;;;;;348426;28;892;-80
2021/11/17 04:35:26;;;;;;;;;;;;;;;;;;348410;28;849;-77
2021/11/17 04:35:55;;;;;;;;;;;;;;;;;;348328;28;980;-81
2021/11/17 04:36:05;;;;;;;;;;;;;;;;;;348449;28;857;-80
2021/11/17 04:36:35;;;;;;;;;;;;;;;;;;348625;28;837;-79
2021/11/17 04:36:48;;;;;;;;;;;;;;;;;;348561;28;979;-76
2021/11/17 04:37:17;;;;;;;;;;;;;;;;;;348520;28;920;-77
2021/11/17 04:37:39;;;;;;;;;;;;;;;;;;348555;28;975;-75
2021/11/17 04:38:08;;;;;;;;;;;;;;;;;;348469;28;873;-76
2021/11/17 04:38:21;;;;;;;;;;;;;;;;;;348509;28;809;-78
2021/11/17 04:38:38;;;;;;;;;;;;;;;;;;348562;28;1066;-78
2021/11/17 04:39:06;;;;;;;;;;;;;;;;;;348487;28;1029;-76
2021/11/17 04:39:17;;;;;;;;;;;;;;;;;;348573;28;865;-76
2021/11/17 04:39:47;;;;;;;;;;;;;;;;;;349309;28;1464;-79
2021/11/17 04:40:16;;;;;;;;;;;;;;;;;;350872;28;1215;-79
2021/11/17 04:40:46;;;;;;;;;;;;;;;;;;351274;28;888;-77
2021/11/17 04:41:12;;;;;;;;;;;;;;;;;;351340;28;1023;-77
2021/11/17 04:41:34;;;;;;;;;;;;;;;;;;351326;28;884;-75
2021/11/17 04:41:53;;;;;;;;;;;;;;;;;;351259;28;1019;-80
2021/11/17 04:42:11;;;;;;;;;;;;;;;;;;351349;28;885;-79
2021/11/17 04:42:34;;;;;;;;;;;;;;;;;;351154;28;987;-82
2021/11/17 04:42:51;;;;;;;;;;;;;;;;;;351269;28;904;-79
2021/11/17 04:43:01;;;;;;;;;;;;;;;;;;351312;28;960;-78
2021/11/17 04:43:17;;;;;;;;;;;;;;;;;;351278;28;963;-77
2021/11/17 04:43:49;;;;;;;;;;;;;;;;;;351291;28;932;-78
2021/11/17 04:43:59;;;;;;;;;;;;;;;;;;351299;28;885;-79
2021/11/17 04:44:21;;;;;;;;;;;;;;;;;;351349;28;899;-78
2021/11/17 04:44:32;;;;;;;;;;;;;;;;;;351158;28;979;-80
2021/11/17 04:44:54;;;;;;;;;;;;;;;;;;351259;28;813;-81
2021/11/17 04:45:11;;;;;;;;;;;;;;;;;;351312;28;998;-77
2021/11/17 04:45:27;;;;;;;;;;;;;;;;;;351352;28;1038;-77
2021/11/17 04:45:41;;;;;;;;;;;;;;;;;;351274;28;995;-80
2021/11/17 04:45:51;;;;;;;;;;;;;;;;;;351170;28;888;-80
2021/11/17 04:46:04;;;;;;;;;;;;;;;;;;351271;28;975;-80
2021/11/17 04:46:18;;;;;;;;;;;;;;;;;;351324;28;1003;-76
2021/11/17 04:46:35;;;;;;;;;;;;;;;;;;351294;28;987;-80
2021/11/17 04:47:02;;;;;;;;;;;;;;;;;;351156;28;941;-80
2021/11/17 04:47:24;;;;;;;;;;;;;;;;;;351317;28;940;-79
2021/11/17 04:47:41;;;;;;;;;;;;;;;;;;351268;28;940;-81
2021/11/17 04:47:51;;;;;;;;;;;;;;;;;;351204;28;1124;-80
2021/11/17 04:48:04;;;;;;;;;;;;;;;;;;351170;28;939;-79
2021/11/17 04:48:21;;;;;;;;;;;;;;;;;;351224;28;821;-77
2021/11/17 04:48:50;;;;;;;;;;;;;;;;;;349828;28;876;-80
2021/11/17 04:49:00;;;;;;;;;;;;;;;;;;349697;28;960;-80
2021/11/17 04:49:29;;;;;;;;;;;;;;;;;;349844;28;798;-80
2021/11/17 04:49:58;;;;;;;;;;;;;;;;;;349853;28;829;-82
2021/11/17 04:50:21;;;;;;;;;;;;;;;;;;351186;28;817;-79
2021/11/17 04:50:37;;;;;;;;;;;;;;;;;;351283;28;869;-78
2021/11/17 04:51:00;;;;;;;;;;;;;;;;;;351149;28;1012;-80
2021/11/17 04:51:13;;;;;;;;;;;;;;;;;;351097;28;908;-80
2021/11/17 04:51:42;;;;;;;;;;;;;;;;;;351104;28;1066;-79
2021/11/17 04:52:05;;;;;;;;;;;;;;;;;;351162;28;924;-80
2021/11/17 04:52:27;;;;;;;;;;;;;;;;;;349813;28;932;-80
2021/11/17 04:52:43;;;;;;;;;;;;;;;;;;349847;28;888;-79
2021/11/17 04:53:14;;;;;;;;;;;;;;;;;;351240;28;896;-80
2021/11/17 04:53:25;;;;;;;;;;;;;;;;;;351116;28;1022;-81
2021/11/17 04:53:35;;;;;;;;;;;;;;;;;;351187;28;1027;-81
2021/11/17 04:53:45;;;;;;;;;;;;;;;;;;351224;28;877;-81
2021/11/17 04:54:03;;;;;;;;;;;;;;;;;;351216;28;844;-80
2021/11/17 04:54:16;;;;;;;;;;;;;;;;;;350779;28;1043;-80
2021/11/17 04:54:45;;;;;;;;;;;;;;;;;;351194;28;975;-78
2021/11/17 04:55:14;;;;;;;;;;;;;;;;;;351151;28;706;-80
2021/11/17 04:55:43;;;;;;;;;;;;;;;;;;351115;28;932;-81
2021/11/17 04:55:53;;;;;;;;;;;;;;;;;;351172;28;802;-80
2021/11/17 04:56:09;;;;;;;;;;;;;;;;;;351224;28;908;-78
2021/11/17 04:56:38;;;;;;;;;;;;;;;;;;352580;28;995;-79
2021/11/17 04:56:49;;;;;;;;;;;;;;;;;;352730;28;805;-81
2021/11/17 04:57:17;;;;;;;;;;;;;;;;;;352846;28;956;-81
2021/11/17 04:57:46;;;;;;;;;;;;;;;;;;352789;28;908;-80
2021/11/17 04:58:16;;;;;;;;;;;;;;;;;;352674;28;899;-79
2021/11/17 04:58:45;;;;;;;;;;;;;;;;;;351578;28;980;-76
2021/11/17 04:59:14;;;;;;;;;;;;;;;;;;351563;28;860;-80
2021/11/17 04:59:30;;;;;;;;;;;;;;;;;;351559;28;1043;-80
2021/11/17 04:59:55;;;;;;;;;;;;;;;;;;351569;28;833;-80
2021/11/17 05:00:24;;;;;;;;;;;;;;;;;;351399;28;808;-77
2021/11/17 05:00:34;;;;;;;;;;;;;;;;;;351540;28;933;-80
2021/11/17 05:01:05;;;;;;;;;;;;;;;;;;351533;28;990;-78
2021/11/17 05:01:15;;;;;;;;;;;;;;;;;;347205;28;1060;-77
2021/11/17 05:01:26;;;;;;;;;;;;;;;;;;347185;28;1212;-81
2021/11/17 05:01:48;;;;;;;;;;;;;;;;;;347245;28;1010;-80
2021/11/17 05:02:01;;;;;;;;;;;;;;;;;;347301;28;988;-80
2021/11/17 05:02:14;;;;;;;;;;;;;;;;;;347307;28;881;-78
2021/11/17 05:02:43;;;;;;;;;;;;;;;;;;349630;28;992;-80
2021/11/17 05:03:12;;;;;;;;;;;;;;;;;;351539;28;984;-80